createdAt,value
2018-08-30T00:00:14.394Z,22.88
2018-08-30T00:01:50.374Z,23.03
2018-08-30T00:03:25.741Z,22.79
2018-08-30T00:05:01.155Z,23.05
2018-08-30T00:06:36.578Z,22.92
2018-08-30T00:08:13.292Z,22.83
2018-08-30T00:09:49.242Z,22.81
2018-08-30T00:11:24.648Z,22.91
2018-08-30T00:13:00.043Z,23.08
2018-08-30T00:14:35.472Z,23.23
2018-08-30T00:16:11.121Z,23.06
2018-08-30T00:17:46.499Z,22.81
2018-08-30T00:19:21.980Z,22.71
2018-08-30T00:20:57.409Z,22.63
2018-08-30T00:22:33.439Z,22.56
2018-08-30T00:24:09.383Z,22.59
2018-08-30T00:25:45.070Z,22.48
2018-08-30T00:27:20.477Z,22.61
2018-08-30T00:28:55.927Z,22.67
2018-08-30T00:30:31.541Z,22.79
2018-08-30T00:32:07.179Z,22.84
2018-08-30T00:33:42.586Z,22.56
2018-08-30T00:35:18.480Z,22.49
2018-08-30T00:36:53.917Z,22.53
2018-08-30T00:38:29.309Z,22.49
2018-08-30T00:40:04.857Z,22.67
2018-08-30T00:41:40.252Z,22.56
2018-08-30T00:43:15.682Z,22.62
2018-08-30T00:44:51.113Z,22.78
2018-08-30T00:46:27.596Z,22.92
2018-08-30T00:48:02.978Z,22.74
2018-08-30T00:49:38.385Z,22.49
2018-08-30T00:51:14.169Z,22.31
2018-08-30T00:52:49.736Z,22.41
2018-08-30T00:54:25.137Z,22.55
2018-08-30T00:56:00.555Z,22.70
2018-08-30T00:57:36.031Z,22.57
2018-08-30T00:59:11.435Z,22.48
2018-08-30T01:00:46.885Z,22.68
2018-08-30T01:02:22.826Z,22.52
2018-08-30T01:03:58.254Z,22.42
2018-08-30T01:05:33.628Z,22.66
2018-08-30T01:07:09.073Z,22.95
2018-08-30T01:08:44.454Z,23.01
2018-08-30T01:10:19.870Z,23.03
2018-08-30T01:11:56.125Z,22.79
2018-08-30T01:13:31.572Z,22.83
2018-08-30T01:15:07.201Z,22.81
2018-08-30T01:16:42.607Z,22.80
2018-08-30T01:18:18.361Z,22.68
2018-08-30T01:19:53.759Z,22.48
2018-08-30T01:21:29.163Z,22.76
2018-08-30T01:23:04.608Z,22.66
2018-08-30T01:24:40.023Z,22.76
2018-08-30T01:26:15.410Z,22.86
2018-08-30T01:27:50.869Z,22.79
2018-08-30T01:29:26.512Z,22.72
2018-08-30T01:31:02.065Z,22.73
2018-08-30T01:32:37.595Z,22.67
2018-08-30T01:34:13.674Z,22.71
2018-08-30T01:37:23.246Z,22.63
2018-08-30T01:38:58.671Z,22.61
2018-08-30T01:40:34.108Z,22.66
2018-08-30T01:42:09.726Z,22.72
2018-08-30T01:43:45.265Z,22.57
2018-08-30T01:45:20.696Z,22.67
2018-08-30T01:46:57.188Z,22.54
2018-08-30T01:48:32.743Z,22.53
2018-08-30T01:50:08.140Z,22.55
2018-08-30T01:51:43.591Z,22.70
2018-08-30T01:53:19.029Z,22.65
2018-08-30T01:54:54.458Z,22.55
2018-08-30T01:56:29.887Z,22.70
2018-08-30T01:58:05.694Z,22.80
2018-08-30T01:59:41.724Z,22.95
2018-08-30T02:01:17.192Z,22.88
2018-08-30T02:02:52.593Z,22.98
2018-08-30T02:04:28.035Z,23.00
2018-08-30T02:06:03.466Z,23.07
2018-08-30T02:07:38.964Z,23.12
2018-08-30T02:09:14.412Z,23.06
2018-08-30T02:10:49.774Z,22.83
2018-08-30T02:12:25.232Z,22.77
2018-08-30T02:14:00.630Z,22.95
2018-08-30T02:15:36.382Z,22.88
2018-08-30T02:17:11.845Z,22.92
2018-08-30T02:18:47.583Z,22.95
2018-08-30T02:20:23.216Z,22.84
2018-08-30T02:21:59.078Z,22.83
2018-08-30T02:23:35.371Z,22.84
2018-08-30T02:25:10.821Z,22.83
2018-08-30T02:26:46.264Z,22.87
2018-08-30T02:28:21.649Z,22.73
2018-08-30T02:29:57.097Z,22.88
2018-08-30T02:31:32.547Z,22.79
2018-08-30T02:33:08.746Z,22.98
2018-08-30T02:34:44.168Z,22.93
2018-08-30T02:36:19.598Z,22.70
2018-08-30T02:37:55.035Z,22.81
2018-08-30T02:39:30.511Z,22.90
2018-08-30T02:41:06.337Z,22.89
2018-08-30T02:42:41.729Z,23.06
2018-08-30T02:44:17.775Z,23.11
2018-08-30T02:45:53.222Z,23.11
2018-08-30T02:47:29.806Z,23.10
2018-08-30T02:49:05.281Z,23.02
2018-08-30T02:50:40.677Z,22.97
2018-08-30T02:52:16.142Z,22.95
2018-08-30T02:53:51.576Z,22.92
2018-08-30T02:55:27.464Z,22.85
2018-08-30T02:57:02.900Z,22.94
2018-08-30T02:58:38.344Z,22.94
2018-08-30T03:00:14.004Z,22.91
2018-08-30T03:01:49.531Z,22.88
2018-08-30T03:03:24.962Z,22.90
2018-08-30T03:05:00.377Z,22.91
2018-08-30T03:06:35.897Z,22.98
2018-08-30T03:08:11.632Z,23.10
2018-08-30T03:09:47.081Z,23.04
2018-08-30T03:11:22.480Z,23.07
2018-08-30T03:12:57.906Z,23.18
2018-08-30T03:14:33.860Z,23.16
2018-08-30T03:16:09.558Z,23.06
2018-08-30T03:17:45.041Z,22.96
2018-08-30T03:19:20.458Z,23.01
2018-08-30T03:20:56.485Z,22.89
2018-08-30T03:22:31.904Z,22.82
2018-08-30T03:24:07.345Z,22.93
2018-08-30T03:25:42.760Z,23.01
2018-08-30T03:27:18.207Z,23.11
2018-08-30T03:28:53.640Z,23.19
2018-08-30T03:30:29.049Z,23.16
2018-08-30T03:32:04.459Z,23.21
2018-08-30T03:33:39.908Z,23.29
2018-08-30T03:35:16.005Z,23.25
2018-08-30T03:36:51.997Z,23.11
2018-08-30T03:38:27.451Z,23.20
2018-08-30T03:40:02.904Z,23.15
2018-08-30T03:41:38.395Z,23.15
2018-08-30T03:43:13.938Z,22.98
2018-08-30T03:44:49.408Z,22.84
2018-08-30T03:46:24.905Z,22.85
2018-08-30T03:48:00.545Z,22.94
2018-08-30T03:49:35.976Z,22.88
2018-08-30T03:51:11.419Z,22.98
2018-08-30T03:52:46.873Z,23.01
2018-08-30T03:54:22.440Z,23.19
2018-08-30T03:56:01.951Z,23.21
2018-08-30T03:57:37.950Z,23.15
2018-08-30T03:59:13.403Z,23.09
2018-08-30T04:00:48.940Z,23.06
2018-08-30T04:02:24.495Z,23.06
2018-08-30T04:04:00.696Z,23.03
2018-08-30T04:05:36.145Z,23.13
2018-08-30T04:07:11.568Z,23.01
2018-08-30T04:08:47.060Z,23.02
2018-08-30T04:10:22.508Z,23.14
2018-08-30T04:11:58.489Z,23.14
2018-08-30T04:13:34.423Z,23.19
2018-08-30T04:15:10.140Z,23.20
2018-08-30T04:16:45.629Z,23.22
2018-08-30T04:18:21.008Z,23.12
2018-08-30T04:19:56.488Z,22.84
2018-08-30T04:21:31.927Z,22.55
2018-08-30T04:23:07.328Z,22.52
2018-08-30T04:24:42.770Z,22.55
2018-08-30T04:26:18.408Z,22.57
2018-08-30T04:27:53.827Z,22.35
2018-08-30T04:29:29.285Z,22.42
2018-08-30T04:31:05.058Z,22.45
2018-08-30T04:32:40.636Z,22.52
2018-08-30T04:34:16.045Z,22.71
2018-08-30T04:35:51.477Z,22.81
2018-08-30T04:37:26.923Z,22.75
2018-08-30T04:39:03.944Z,22.97
2018-08-30T04:40:39.382Z,23.00
2018-08-30T04:42:14.813Z,22.92
2018-08-30T04:43:50.210Z,22.79
2018-08-30T04:45:25.635Z,22.77
2018-08-30T04:47:01.643Z,22.81
2018-08-30T04:48:37.687Z,22.85
2018-08-30T04:50:14.623Z,22.99
2018-08-30T04:51:50.168Z,23.04
2018-08-30T04:53:25.712Z,23.11
2018-08-30T04:55:01.836Z,23.13
2018-08-30T04:56:38.138Z,22.88
2018-08-30T04:58:14.067Z,22.78
2018-08-30T04:59:50.478Z,22.90
2018-08-30T05:01:25.995Z,23.06
2018-08-30T05:03:01.420Z,23.28
2018-08-30T05:04:36.845Z,23.29
2018-08-30T05:06:12.568Z,23.37
2018-08-30T05:07:48.026Z,23.41
2018-08-30T05:09:23.459Z,23.38
2018-08-30T05:10:58.956Z,23.33
2018-08-30T05:12:34.405Z,23.35
2018-08-30T05:14:10.307Z,23.38
2018-08-30T05:15:47.750Z,23.34
2018-08-30T05:17:23.191Z,23.46
2018-08-30T05:18:59.109Z,23.37
2018-08-30T05:20:34.520Z,23.30
2018-08-30T05:22:10.325Z,23.36
2018-08-30T05:23:48.394Z,23.38
2018-08-30T05:25:23.808Z,23.45
2018-08-30T05:26:59.207Z,23.45
2018-08-30T05:28:37.235Z,23.02
2018-08-30T05:30:13.907Z,22.70
2018-08-30T05:31:49.498Z,22.70
2018-08-30T05:33:25.068Z,22.65
2018-08-30T05:35:02.416Z,22.60
2018-08-30T05:36:37.832Z,22.69
2018-08-30T05:38:13.232Z,22.52
2018-08-30T05:39:49.033Z,22.49
2018-08-30T05:41:24.512Z,22.58
2018-08-30T05:42:59.892Z,22.63
2018-08-30T05:44:35.415Z,22.89
2018-08-30T05:46:12.554Z,22.95
2018-08-30T05:47:47.986Z,23.08
2018-08-30T05:49:23.418Z,23.18
2018-08-30T05:50:58.918Z,23.28
2018-08-30T05:52:35.997Z,22.91
2018-08-30T05:54:11.483Z,23.27
2018-08-30T05:55:47.560Z,23.35
2018-08-30T05:57:23.044Z,23.37
2018-08-30T05:58:58.491Z,23.13
2018-08-30T06:00:33.957Z,23.21
2018-08-30T06:02:11.071Z,23.29
2018-08-30T06:03:47.706Z,23.42
2018-08-30T06:05:23.810Z,23.50
2018-08-30T06:07:01.191Z,23.52
2018-08-30T06:08:50.150Z,23.52
2018-08-30T06:10:31.515Z,23.52
2018-08-30T06:12:06.996Z,23.54
2018-08-30T06:13:42.421Z,23.68
2018-08-30T06:15:17.830Z,23.74
2018-08-30T06:16:53.634Z,23.75
2018-08-30T06:18:30.476Z,23.69
2018-08-30T06:20:06.203Z,23.73
2018-08-30T06:21:42.127Z,23.60
2018-08-30T06:23:17.842Z,23.62
2018-08-30T06:24:53.241Z,23.76
2018-08-30T06:26:29.008Z,23.71
2018-08-30T06:28:05.381Z,23.64
2018-08-30T06:29:41.254Z,23.79
2018-08-30T06:31:17.951Z,23.93
2018-08-30T06:32:53.606Z,23.84
2018-08-30T06:34:28.952Z,23.65
2018-08-30T06:36:04.457Z,23.55
2018-08-30T06:37:40.133Z,23.59
2018-08-30T06:39:15.634Z,23.59
2018-08-30T06:40:51.482Z,23.65
2018-08-30T06:42:28.668Z,23.64
2018-08-30T06:44:04.133Z,23.65
2018-08-30T06:45:40.130Z,23.68
2018-08-30T06:47:20.196Z,23.65
2018-08-30T06:48:56.599Z,23.55
2018-08-30T06:52:12.360Z,23.64
2018-08-30T06:53:49.340Z,23.34
2018-08-30T06:55:24.874Z,23.46
2018-08-30T06:57:04.487Z,23.67
2018-08-30T06:58:40.063Z,23.70
2018-08-30T07:00:16.693Z,23.49
2018-08-30T07:01:52.201Z,23.73
2018-08-30T07:03:27.656Z,23.85
2018-08-30T07:05:03.372Z,23.81
2018-08-30T07:06:39.761Z,23.73
2018-08-30T07:08:15.385Z,23.79
2018-08-30T07:09:51.463Z,23.25
2018-08-30T07:11:29.348Z,23.34
2018-08-30T07:13:04.824Z,23.53
2018-08-30T07:14:41.267Z,23.75
2018-08-30T07:16:16.723Z,23.81
2018-08-30T07:17:52.141Z,23.66
2018-08-30T07:19:27.567Z,23.82
2018-08-30T07:21:03.025Z,24.03
2018-08-30T07:22:38.549Z,23.90
2018-08-30T07:24:15.687Z,23.83
2018-08-30T07:25:51.104Z,24.09
2018-08-30T07:27:26.566Z,23.64
2018-08-30T07:29:02.009Z,23.85
2018-08-30T07:30:37.444Z,24.02
2018-08-30T07:32:12.876Z,24.31
2018-08-30T07:33:48.326Z,24.28
2018-08-30T07:35:23.769Z,24.33
2018-08-30T07:36:59.174Z,24.45
2018-08-30T07:38:34.649Z,24.21
2018-08-30T07:40:10.072Z,24.46
2018-08-30T07:41:46.917Z,24.44
2018-08-30T07:43:22.463Z,24.56
2018-08-30T07:44:57.901Z,24.71
2018-08-30T07:46:33.318Z,24.77
2018-08-30T07:48:08.782Z,25.09
2018-08-30T07:49:45.184Z,25.07
2018-08-30T07:51:21.669Z,24.74
2018-08-30T07:52:57.110Z,25.00
2018-08-30T07:54:32.688Z,24.82
2018-08-30T07:56:08.181Z,24.93
2018-08-30T07:57:43.720Z,24.73
2018-08-30T07:59:19.291Z,24.48
2018-08-30T08:00:54.756Z,24.50
2018-08-30T08:02:32.835Z,24.45
2018-08-30T08:04:09.458Z,24.42
2018-08-30T08:05:45.397Z,24.23
2018-08-30T08:07:21.015Z,24.35
2018-08-30T08:08:56.373Z,24.36
2018-08-30T08:10:31.830Z,24.19
2018-08-30T08:12:07.477Z,24.11
2018-08-30T08:13:42.827Z,24.23
2018-08-30T08:15:18.238Z,24.22
2018-08-30T08:16:53.682Z,24.38
2018-08-30T08:18:29.170Z,24.55
2018-08-30T08:20:04.599Z,24.43
2018-08-30T08:21:40.986Z,24.52
2018-08-30T08:23:16.412Z,24.52
2018-08-30T08:24:51.869Z,24.59
2018-08-30T08:26:27.273Z,24.56
2018-08-30T08:28:02.758Z,24.55
2018-08-30T08:29:38.186Z,24.64
2018-08-30T08:31:14.251Z,24.51
2018-08-30T08:32:55.059Z,24.17
2018-08-30T08:34:30.938Z,24.01
2018-08-30T08:36:06.352Z,24.36
2018-08-30T08:37:41.755Z,24.30
2018-08-30T08:39:17.218Z,24.53
2018-08-30T08:40:52.688Z,24.79
2018-08-30T08:42:28.130Z,24.50
2018-08-30T08:44:03.621Z,24.39
2018-08-30T08:45:39.052Z,24.72
2018-08-30T08:47:14.824Z,24.29
2018-08-30T08:48:50.299Z,24.71
2018-08-30T08:50:25.763Z,24.28
2018-08-30T08:52:01.612Z,24.33
2018-08-30T08:53:37.056Z,24.45
2018-08-30T08:55:12.638Z,24.26
2018-08-30T08:56:48.233Z,24.45
2018-08-30T08:58:23.660Z,24.19
2018-08-30T08:59:59.158Z,24.04
2018-08-30T09:01:34.935Z,24.30
2018-08-30T09:03:10.406Z,24.45
2018-08-30T09:04:45.834Z,23.85
2018-08-30T09:06:21.333Z,23.48
2018-08-30T09:07:58.338Z,23.84
2018-08-30T09:09:33.724Z,23.85
2018-08-30T09:11:09.412Z,24.05
2018-08-30T09:12:44.878Z,24.47
2018-08-30T09:14:20.575Z,24.38
2018-08-30T09:15:56.617Z,24.10
2018-08-30T09:17:32.100Z,24.31
2018-08-30T09:19:08.112Z,24.19
2018-08-30T09:20:43.554Z,23.84
2018-08-30T09:22:20.515Z,24.03
2018-08-30T09:23:56.374Z,24.18
2018-08-30T09:25:31.831Z,23.84
2018-08-30T09:27:07.777Z,24.12
2018-08-30T09:28:43.736Z,23.95
2018-08-30T09:30:19.454Z,24.28
2018-08-30T09:31:54.925Z,24.01
2018-08-30T09:33:32.487Z,24.14
2018-08-30T09:35:08.058Z,23.80
2018-08-30T09:36:43.578Z,24.00
2018-08-30T09:38:19.934Z,23.76
2018-08-30T09:39:55.399Z,23.69
2018-08-30T09:41:31.493Z,24.02
2018-08-30T09:43:06.973Z,23.98
2018-08-30T09:44:42.462Z,23.89
2018-08-30T09:46:19.649Z,23.90
2018-08-30T09:47:55.087Z,23.68
2018-08-30T09:49:30.636Z,23.96
2018-08-30T09:51:06.160Z,23.86
2018-08-30T09:52:42.337Z,24.06
2018-08-30T09:54:22.556Z,22.97
2018-08-30T09:55:58.339Z,22.88
2018-08-30T09:57:33.830Z,23.10
2018-08-30T09:59:09.705Z,23.09
2018-08-30T10:00:51.338Z,22.60
2018-08-30T10:02:32.234Z,23.34
2018-08-30T10:04:08.178Z,23.82
2018-08-30T10:05:43.666Z,24.14
2018-08-30T10:07:19.108Z,24.30
2018-08-30T10:08:54.599Z,24.27
2018-08-30T10:10:30.036Z,24.38
2018-08-30T10:12:05.575Z,23.98
2018-08-30T10:13:41.043Z,23.92
2018-08-30T10:15:16.502Z,23.92
2018-08-30T10:16:52.415Z,23.84
2018-08-30T10:18:28.798Z,23.68
2018-08-30T10:20:04.284Z,23.34
2018-08-30T10:21:39.794Z,23.19
2018-08-30T10:23:15.277Z,23.36
2018-08-30T10:24:50.751Z,23.04
2018-08-30T10:26:26.227Z,23.35
2018-08-30T10:28:02.083Z,23.61
2018-08-30T10:29:38.252Z,23.50
2018-08-30T10:31:13.701Z,22.68
2018-08-30T10:32:49.711Z,22.90
2018-08-30T10:34:30.723Z,23.21
2018-08-30T10:36:06.859Z,23.07
2018-08-30T10:37:42.325Z,22.90
2018-08-30T10:39:18.279Z,22.78
2018-08-30T10:40:53.973Z,22.71
2018-08-30T10:42:30.417Z,22.71
2018-08-30T10:44:06.358Z,22.88
2018-08-30T10:45:41.811Z,23.21
2018-08-30T10:47:17.665Z,23.14
2018-08-30T10:48:53.925Z,23.13
2018-08-30T10:50:30.402Z,22.85
2018-08-30T10:52:05.910Z,22.74
2018-08-30T10:53:42.111Z,22.86
2018-08-30T10:57:02.161Z,23.10
2018-08-30T10:58:39.642Z,23.09
2018-08-30T11:00:24.898Z,22.36
2018-08-30T11:02:12.339Z,22.86
2018-08-30T11:03:49.920Z,23.01
2018-08-30T11:05:25.462Z,23.01
2018-08-30T11:07:01.031Z,23.39
2018-08-30T11:08:37.437Z,23.32
2018-08-30T11:10:12.918Z,23.32
2018-08-30T11:11:48.438Z,23.41
2018-08-30T11:13:24.298Z,23.55
2018-08-30T11:14:59.750Z,23.47
2018-08-30T11:16:35.224Z,23.30
2018-08-30T11:18:10.719Z,23.13
2018-08-30T11:19:46.146Z,23.13
2018-08-30T11:21:21.571Z,23.02
2018-08-30T11:22:57.424Z,23.10
2018-08-30T11:24:33.955Z,23.36
2018-08-30T11:26:09.629Z,23.34
2018-08-30T11:27:45.476Z,23.28
2018-08-30T11:29:21.621Z,23.30
2018-08-30T11:30:57.099Z,23.71
2018-08-30T11:32:32.555Z,23.78
2018-08-30T11:34:08.010Z,24.03
2018-08-30T11:35:43.401Z,23.63
2018-08-30T11:37:19.420Z,23.52
2018-08-30T11:38:58.528Z,23.38
2018-08-30T11:40:36.851Z,23.44
2018-08-30T11:42:12.292Z,23.67
2018-08-30T11:43:48.027Z,23.90
2018-08-30T11:45:23.574Z,24.28
2018-08-30T11:46:59.081Z,24.28
2018-08-30T11:48:35.568Z,24.03
2018-08-30T11:50:11.200Z,24.31
2018-08-30T11:51:53.928Z,24.22
2018-08-30T11:53:30.113Z,24.25
2018-08-30T11:55:05.839Z,23.95
2018-08-30T11:56:44.223Z,23.87
2018-08-30T11:58:20.673Z,23.75
2018-08-30T11:59:59.183Z,23.94
2018-08-30T12:01:37.586Z,24.20
2018-08-30T12:03:17.752Z,24.46
2018-08-30T12:04:53.508Z,24.61
2018-08-30T12:06:30.811Z,24.31
2018-08-30T12:08:06.648Z,24.55
2018-08-30T12:09:44.489Z,24.33
2018-08-30T12:11:20.532Z,24.05
2018-08-30T12:12:57.154Z,23.84
2018-08-30T12:14:32.898Z,23.91
2018-08-30T12:16:08.658Z,23.85
2018-08-30T12:17:44.273Z,23.57
2018-08-30T12:19:19.759Z,23.18
2018-08-30T12:20:55.280Z,23.35
2018-08-30T12:22:31.389Z,23.36
2018-08-30T12:24:06.823Z,23.53
2018-08-30T12:25:42.386Z,23.66
2018-08-30T12:27:17.792Z,23.34
2018-08-30T12:28:53.317Z,22.73
2018-08-30T12:30:28.872Z,22.74
2018-08-30T12:32:04.384Z,22.59
2018-08-30T12:33:39.922Z,22.86
2018-08-30T12:35:15.558Z,22.97
2018-08-30T12:36:50.900Z,23.22
2018-08-30T12:38:26.587Z,22.87
2018-08-30T12:40:03.751Z,23.15
2018-08-30T12:41:39.165Z,22.73
2018-08-30T12:43:14.691Z,23.23
2018-08-30T12:44:50.024Z,22.77
2018-08-30T12:46:25.452Z,22.77
2018-08-30T12:48:01.234Z,22.66
2018-08-30T12:49:36.616Z,22.59
2018-08-30T12:51:12.273Z,22.97
2018-08-30T12:52:47.719Z,23.35
2018-08-30T12:54:23.479Z,23.13
2018-08-30T12:55:58.880Z,22.91
2018-08-30T12:57:34.803Z,22.97
2018-08-30T12:59:15.469Z,23.13
2018-08-30T13:00:51.094Z,23.05
2018-08-30T13:02:26.579Z,23.19
2018-08-30T13:04:02.536Z,22.96
2018-08-30T13:05:39.222Z,23.49
2018-08-30T13:07:16.016Z,23.37
2018-08-30T13:08:51.525Z,23.54
2018-08-30T13:10:26.927Z,23.76
2018-08-30T13:12:02.632Z,23.97
2018-08-30T13:13:39.945Z,23.69
2018-08-30T13:15:16.391Z,24.00
2018-08-30T13:16:51.625Z,23.98
2018-08-30T13:18:27.203Z,24.13
2018-08-30T13:20:03.141Z,24.67
2018-08-30T13:21:38.827Z,25.42
2018-08-30T13:23:14.180Z,25.67
2018-08-30T13:24:49.838Z,25.57
2018-08-30T13:26:25.074Z,25.62
2018-08-30T13:28:00.637Z,25.81
2018-08-30T13:29:37.006Z,25.97
2018-08-30T13:31:13.153Z,26.21
2018-08-30T13:32:49.110Z,25.62
2018-08-30T13:34:24.936Z,25.46
2018-08-30T13:36:00.316Z,24.81
2018-08-30T13:37:35.914Z,24.84
2018-08-30T13:39:12.306Z,25.48
2018-08-30T13:40:47.789Z,26.05
2018-08-30T13:42:23.628Z,26.29
2018-08-30T13:43:59.057Z,26.23
2018-08-30T13:45:35.054Z,25.73
2018-08-30T13:47:10.485Z,25.49
2018-08-30T13:48:46.075Z,25.05
2018-08-30T13:50:21.598Z,24.89
2018-08-30T13:51:57.218Z,24.70
2018-08-30T13:53:33.575Z,24.40
2018-08-30T13:55:09.131Z,24.29
2018-08-30T13:56:44.751Z,23.95
2018-08-30T13:58:20.451Z,23.84
2018-08-30T13:59:56.027Z,24.07
2018-08-30T14:01:31.892Z,23.75
2018-08-30T14:03:06.662Z,23.63
2018-08-30T14:04:42.104Z,23.85
2018-08-30T14:06:17.616Z,23.71
2018-08-30T14:07:53.185Z,23.69
2018-08-30T14:09:28.789Z,24.05
2018-08-30T14:11:04.290Z,24.27
2018-08-30T14:12:40.642Z,24.61
2018-08-30T14:14:15.928Z,24.33
2018-08-30T14:15:51.741Z,24.51
2018-08-30T14:17:27.353Z,24.02
2018-08-30T14:19:03.044Z,24.22
2018-08-30T14:20:38.333Z,24.39
2018-08-30T14:22:17.566Z,24.93
2018-08-30T14:23:52.984Z,25.28
2018-08-30T14:25:28.354Z,25.20
2018-08-30T14:27:03.876Z,25.53
2018-08-30T14:28:39.303Z,25.80
2018-08-30T14:30:16.666Z,25.84
2018-08-30T14:31:54.536Z,25.83
2018-08-30T14:33:31.617Z,25.63
2018-08-30T14:35:08.024Z,25.70
2018-08-30T14:36:43.461Z,25.79
2018-08-30T14:38:19.126Z,25.58
2018-08-30T14:39:56.732Z,25.35
2018-08-30T14:41:32.514Z,25.19
2018-08-30T14:43:08.246Z,25.28
2018-08-30T14:44:44.668Z,24.48
2018-08-30T14:46:20.135Z,24.73
2018-08-30T14:47:56.349Z,24.70
2018-08-30T14:49:32.408Z,24.86
2018-08-30T14:51:08.637Z,24.80
2018-08-30T14:52:44.143Z,24.86
2018-08-30T14:54:20.882Z,24.92
2018-08-30T14:55:56.713Z,25.08
2018-08-30T14:57:39.158Z,24.86
2018-08-30T14:59:14.719Z,24.89
2018-08-30T15:00:51.514Z,24.74
2018-08-30T15:02:26.907Z,24.61
2018-08-30T15:04:02.410Z,24.66
2018-08-30T15:05:38.050Z,24.71
2018-08-30T15:07:13.354Z,24.68
2018-08-30T15:08:48.825Z,24.72
2018-08-30T15:10:25.056Z,24.26
2018-08-30T15:12:01.199Z,24.63
2018-08-30T15:13:36.733Z,24.13
2018-08-30T15:15:12.273Z,24.49
2018-08-30T15:16:47.725Z,24.58
2018-08-30T15:18:23.424Z,24.30
2018-08-30T15:20:01.318Z,24.42
2018-08-30T15:21:36.691Z,24.38
2018-08-30T15:23:13.313Z,24.54
2018-08-30T15:24:48.493Z,24.11
2018-08-30T15:26:23.944Z,24.01
2018-08-30T15:28:00.207Z,24.14
2018-08-30T15:29:35.888Z,24.19
2018-08-30T15:31:11.707Z,24.26
2018-08-30T15:32:47.715Z,24.07
2018-08-30T15:34:23.841Z,23.83
2018-08-30T15:35:59.345Z,23.72
2018-08-30T15:37:34.938Z,23.74
2018-08-30T15:39:11.218Z,23.77
2018-08-30T15:40:46.679Z,23.56
2018-08-30T15:42:22.159Z,23.73
2018-08-30T15:43:57.538Z,23.74
2018-08-30T15:45:33.022Z,23.93
2018-08-30T15:47:08.489Z,23.76
2018-08-30T15:48:46.066Z,23.62
2018-08-30T15:50:21.547Z,23.45
2018-08-30T15:51:57.010Z,23.82
2018-08-30T15:53:32.473Z,24.05
2018-08-30T15:55:10.894Z,24.28
2018-08-30T15:56:47.729Z,24.19
2018-08-30T15:58:23.587Z,23.98
2018-08-30T15:59:59.087Z,24.24
2018-08-30T16:01:34.566Z,24.27
2018-08-30T16:03:10.100Z,24.19
2018-08-30T16:04:45.804Z,24.00
2018-08-30T16:06:21.298Z,24.00
2018-08-30T16:07:56.748Z,24.12
2018-08-30T16:09:32.720Z,24.06
2018-08-30T16:11:08.253Z,24.30
2018-08-30T16:12:44.934Z,24.46
2018-08-30T16:14:20.482Z,24.35
2018-08-30T16:15:56.048Z,24.31
2018-08-30T16:17:31.520Z,24.13
2018-08-30T16:19:06.992Z,24.08
2018-08-30T16:20:42.511Z,24.02
2018-08-30T16:22:18.612Z,24.02
2018-08-30T16:23:54.011Z,24.14
2018-08-30T16:25:29.516Z,23.96
2018-08-30T16:27:06.134Z,24.11
2018-08-30T16:28:44.143Z,23.98
2018-08-30T16:30:19.694Z,24.20
2018-08-30T16:31:55.397Z,24.36
2018-08-30T16:33:31.458Z,24.26
2018-08-30T16:35:08.151Z,24.09
2018-08-30T16:36:43.695Z,23.85
2018-08-30T16:38:20.049Z,23.66
2018-08-30T16:39:55.557Z,23.76
2018-08-30T16:41:30.980Z,23.80
2018-08-30T16:43:07.861Z,23.76
2018-08-30T16:44:43.310Z,23.83
2018-08-30T16:46:18.804Z,23.83
2018-08-30T16:47:54.536Z,23.69
2018-08-30T16:49:30.009Z,23.80
2018-08-30T16:51:05.466Z,23.93
2018-08-30T16:52:41.871Z,23.83
2018-08-30T16:54:18.656Z,23.57
2018-08-30T16:55:54.910Z,23.67
2018-08-30T16:57:31.755Z,23.82
2018-08-30T16:59:07.308Z,23.81
2018-08-30T17:00:45.477Z,23.69
2018-08-30T17:02:20.954Z,23.86
2018-08-30T17:03:56.394Z,23.93
2018-08-30T17:05:32.743Z,23.98
2018-08-30T17:07:12.783Z,23.86
2018-08-30T17:08:49.152Z,23.89
2018-08-30T17:10:24.525Z,23.73
2018-08-30T17:12:01.202Z,23.36
2018-08-30T17:13:38.100Z,23.34
2018-08-30T17:15:13.954Z,23.55
2018-08-30T17:16:49.438Z,23.50
2018-08-30T17:18:25.886Z,23.46
2018-08-30T17:20:01.355Z,23.46
2018-08-30T17:21:36.860Z,23.59
2018-08-30T17:23:27.184Z,23.53
2018-08-30T17:25:02.600Z,23.29
2018-08-30T17:26:38.179Z,23.35
2018-08-30T17:28:13.871Z,23.04
2018-08-30T17:29:50.125Z,23.05
2018-08-30T17:31:26.271Z,23.08
2018-08-30T17:33:01.862Z,23.16
2018-08-30T17:34:38.731Z,23.15
2018-08-30T17:36:14.394Z,23.23
2018-08-30T17:37:50.021Z,22.97
2018-08-30T17:39:25.442Z,22.81
2018-08-30T17:41:00.953Z,22.80
2018-08-30T17:42:36.458Z,22.77
2018-08-30T17:44:11.910Z,22.76
2018-08-30T17:45:48.311Z,22.77
2018-08-30T17:47:23.767Z,22.65
2018-08-30T17:48:59.222Z,22.60
2018-08-30T17:50:35.274Z,22.36
2018-08-30T17:52:13.655Z,22.17
2018-08-30T17:53:50.963Z,22.28
2018-08-30T17:55:27.536Z,22.33
2018-08-30T17:57:03.022Z,22.38
2018-08-30T17:58:38.458Z,22.28
2018-08-30T18:00:14.430Z,22.17
2018-08-30T18:01:50.819Z,22.20
2018-08-30T18:03:26.219Z,22.13
2018-08-30T18:05:01.791Z,22.22
2018-08-30T18:06:38.030Z,22.16
2018-08-30T18:08:13.488Z,22.07
2018-08-30T18:09:48.888Z,22.05
2018-08-30T18:11:24.408Z,22.00
2018-08-30T18:12:59.866Z,22.08
2018-08-30T18:14:35.307Z,22.12
2018-08-30T18:16:12.032Z,22.04
2018-08-30T18:17:47.494Z,21.88
2018-08-30T18:19:23.305Z,21.88
2018-08-30T18:20:58.747Z,21.76
2018-08-30T18:22:34.804Z,21.86
2018-08-30T18:24:10.265Z,21.88
2018-08-30T18:25:46.516Z,21.89
2018-08-30T18:27:21.997Z,21.92
2018-08-30T18:28:57.644Z,21.78
2018-08-30T18:30:33.212Z,21.97
2018-08-30T18:32:08.714Z,21.84
2018-08-30T18:33:44.177Z,21.91
2018-08-30T18:35:19.610Z,22.04
2018-08-30T18:36:55.092Z,22.05
2018-08-30T18:38:30.601Z,21.90
2018-08-30T18:40:08.011Z,21.84
2018-08-30T18:41:43.468Z,21.82
2018-08-30T18:43:19.221Z,21.97
2018-08-30T18:44:54.688Z,22.00
2018-08-30T18:46:30.116Z,22.07
2018-08-30T18:48:05.587Z,21.95
2018-08-30T18:49:41.602Z,21.62
2018-08-30T18:51:17.259Z,21.87
2018-08-30T18:52:52.742Z,22.03
2018-08-30T18:54:28.302Z,22.09
2018-08-30T18:56:03.958Z,22.07
2018-08-30T18:57:39.347Z,22.13
2018-08-30T18:59:15.357Z,21.97
2018-08-30T19:00:52.160Z,22.13
2018-08-30T19:02:29.314Z,22.00
2018-08-30T19:04:04.777Z,21.98
2018-08-30T19:05:40.417Z,21.99
2018-08-30T19:07:15.843Z,21.99
2018-08-30T19:08:51.816Z,21.85
2018-08-30T19:10:28.276Z,21.66
2018-08-30T19:12:03.761Z,21.71
2018-08-30T19:13:39.438Z,21.65
2018-08-30T19:15:21.223Z,21.68
2018-08-30T19:17:04.173Z,21.45
2018-08-30T19:19:14.641Z,21.31
2018-08-30T19:20:50.084Z,21.20
2018-08-30T19:22:25.540Z,21.29
2018-08-30T19:24:00.950Z,21.29
2018-08-30T19:25:36.452Z,21.32
2018-08-30T19:27:11.925Z,21.27
2018-08-30T19:28:47.406Z,20.93
2018-08-30T19:30:28.580Z,20.89
2018-08-30T19:32:04.176Z,20.73
2018-08-30T19:33:39.667Z,21.04
2018-08-30T19:35:20.424Z,21.07
2018-08-30T19:36:55.883Z,21.04
2018-08-30T19:38:31.339Z,21.03
2018-08-30T19:40:10.303Z,20.97
2018-08-30T19:41:45.809Z,20.79
2018-08-30T19:43:21.256Z,20.91
2018-08-30T19:44:56.737Z,21.01
2018-08-30T19:46:32.221Z,20.78
2018-08-30T19:48:07.712Z,20.98
2018-08-30T19:49:46.199Z,20.85
2018-08-30T19:51:21.647Z,20.94
2018-08-30T19:52:57.139Z,20.93
2018-08-30T19:54:32.966Z,20.81
2018-08-30T19:56:09.684Z,20.85
2018-08-30T19:57:45.179Z,20.94
2018-08-30T19:59:20.642Z,20.77
2018-08-30T20:00:56.095Z,20.70
2018-08-30T20:02:32.106Z,20.66
2018-08-30T20:04:07.786Z,20.61
2018-08-30T20:05:44.637Z,20.58
2018-08-30T20:07:20.846Z,20.57
2018-08-30T20:08:56.296Z,20.47
2018-08-30T20:10:31.848Z,20.35
2018-08-30T20:12:07.284Z,20.33
2018-08-30T20:13:43.548Z,20.24
2018-08-30T20:15:19.595Z,20.11
2018-08-30T20:16:57.056Z,20.06
2018-08-30T20:18:32.508Z,20.18
2018-08-30T20:20:09.238Z,20.29
2018-08-30T20:21:44.636Z,20.37
2018-08-30T20:23:21.225Z,20.20
2018-08-30T20:24:56.858Z,20.15
2018-08-30T20:26:32.335Z,20.02
2018-08-30T20:28:08.070Z,19.91
2018-08-30T20:29:43.803Z,19.84
2018-08-30T20:31:19.322Z,19.74
2018-08-30T20:32:54.752Z,19.64
2018-08-30T20:34:30.220Z,19.46
2018-08-30T20:36:05.757Z,19.56
2018-08-30T20:37:41.241Z,19.53
2018-08-30T20:39:16.797Z,19.45
2018-08-30T20:40:52.367Z,19.46